createdAt,value
2018-06-17T00:00:08.997Z,125.82
2018-06-17T00:02:40.112Z,123.40
2018-06-17T00:05:11.269Z,125.70
2018-06-17T00:07:42.488Z,126.30
2018-06-17T00:10:13.478Z,127.00
2018-06-17T00:12:44.945Z,130.52
2018-06-17T00:15:15.934Z,132.00
2018-06-17T00:17:47.724Z,130.97
2018-06-17T00:20:18.813Z,128.55
2018-06-17T00:22:50.126Z,131.82
2018-06-17T00:25:21.074Z,130.50
2018-06-17T00:27:52.182Z,133.45
2018-06-17T00:30:23.250Z,127.53
2018-06-17T00:32:54.353Z,126.35
2018-06-17T00:35:25.714Z,126.12
2018-06-17T00:37:57.098Z,127.40
2018-06-17T00:40:28.084Z,123.13
2018-06-17T00:42:59.071Z,125.90
2018-06-17T00:45:30.062Z,119.90
2018-06-17T00:48:01.936Z,121.25
2018-06-17T00:50:33.000Z,126.38
2018-06-17T00:53:04.103Z,124.05
2018-06-17T00:55:35.369Z,130.63
2018-06-17T00:58:06.893Z,121.77
2018-06-17T01:00:37.919Z,128.23
2018-06-17T01:03:09.031Z,123.45
2018-06-17T01:05:40.861Z,123.40
2018-06-17T01:08:12.080Z,123.55
2018-06-17T01:10:43.137Z,121.28
2018-06-17T01:13:14.174Z,125.45
2018-06-17T01:15:45.084Z,128.12
2018-06-17T01:18:17.522Z,130.82
2018-06-17T01:20:49.319Z,128.47
2018-06-17T01:23:21.318Z,123.50
2018-06-17T01:25:52.283Z,126.05
2018-06-17T01:28:23.369Z,126.50
2018-06-17T01:30:54.351Z,127.15
2018-06-17T01:33:25.401Z,127.97
2018-06-17T01:35:58.224Z,130.40
2018-06-17T01:38:29.411Z,127.75
2018-06-17T01:41:00.737Z,126.87
2018-06-17T01:43:39.936Z,118.55
2018-06-17T01:46:13.041Z,124.58
2018-06-17T01:48:44.003Z,125.27
2018-06-17T01:51:15.151Z,124.18
2018-06-17T01:53:46.455Z,125.27
2018-06-17T01:56:17.437Z,122.80
2018-06-17T01:58:48.496Z,122.90
2018-06-17T02:01:19.505Z,123.72
2018-06-17T02:03:55.655Z,123.00
2018-06-17T02:06:31.854Z,126.33
2018-06-17T02:09:08.202Z,125.58
2018-06-17T02:11:41.654Z,126.45
2018-06-17T02:14:17.604Z,123.92
2018-06-17T02:16:55.245Z,128.30
2018-06-17T02:19:28.061Z,125.10
2018-06-17T02:21:59.736Z,120.80
2018-06-17T02:24:30.809Z,120.02
2018-06-17T02:27:01.916Z,129.12
2018-06-17T02:29:32.895Z,124.02
2018-06-17T02:32:04.150Z,119.10
2018-06-17T02:34:35.104Z,121.70
2018-06-17T02:37:06.694Z,124.53
2018-06-17T02:39:37.910Z,126.58
2018-06-17T02:42:09.777Z,128.72
2018-06-17T02:44:40.773Z,120.17
2018-06-17T02:47:16.910Z,129.57
2018-06-17T02:49:49.409Z,129.87
2018-06-17T02:52:25.553Z,128.95
2018-06-17T02:54:56.903Z,128.47
2018-06-17T02:57:27.937Z,125.70
2018-06-17T02:59:59.111Z,126.53
2018-06-17T03:02:30.256Z,135.03
2018-06-17T03:05:01.398Z,125.15
2018-06-17T03:07:32.539Z,123.42
2018-06-17T03:10:03.651Z,122.13
2018-06-17T03:12:34.773Z,120.02
2018-06-17T03:15:05.768Z,125.75
2018-06-17T03:17:36.906Z,125.95
2018-06-17T03:20:07.877Z,120.77
2018-06-17T03:22:39.062Z,123.58
2018-06-17T03:25:15.130Z,124.07
2018-06-17T03:27:51.359Z,124.25
2018-06-17T03:30:27.329Z,124.20
2018-06-17T03:33:03.315Z,122.65
2018-06-17T03:35:39.364Z,123.15
2018-06-17T03:38:10.484Z,127.65
2018-06-17T03:40:41.541Z,124.55
2018-06-17T03:43:12.520Z,151.97
2018-06-17T03:45:43.540Z,131.67
2018-06-17T03:48:14.615Z,129.38
2018-06-17T03:50:45.655Z,127.27
2018-06-17T03:53:16.732Z,124.18
2018-06-17T03:55:47.985Z,117.08
2018-06-17T03:58:19.097Z,120.97
2018-06-17T04:00:50.202Z,121.57
2018-06-17T04:03:21.365Z,126.70
2018-06-17T04:05:52.645Z,127.10
2018-06-17T04:08:23.784Z,128.90
2018-06-17T04:10:54.922Z,124.33
2018-06-17T04:13:26.050Z,125.58
2018-06-17T04:15:57.207Z,124.20
2018-06-17T04:18:28.289Z,128.57
2018-06-17T04:20:59.330Z,131.40
2018-06-17T04:23:30.941Z,126.45
2018-06-17T04:26:02.596Z,123.35
2018-06-17T04:28:33.941Z,122.72
2018-06-17T04:31:05.247Z,128.07
2018-06-17T04:33:36.346Z,120.70
2018-06-17T04:36:07.488Z,122.37
2018-06-17T04:38:38.628Z,128.90
2018-06-17T04:41:09.709Z,126.47
2018-06-17T04:43:40.822Z,125.10
2018-06-17T04:46:12.125Z,125.65
2018-06-17T04:48:43.233Z,129.63
2018-06-17T04:51:14.324Z,127.32
2018-06-17T04:53:46.008Z,124.82
2018-06-17T04:56:17.212Z,129.50
2018-06-17T04:58:48.255Z,126.02
2018-06-17T05:01:19.398Z,125.30
2018-06-17T05:03:50.452Z,130.43
2018-06-17T05:06:21.615Z,131.52
2018-06-17T05:08:52.627Z,130.45
2018-06-17T05:11:23.715Z,127.50
2018-06-17T05:13:54.845Z,127.22
2018-06-17T05:16:26.047Z,128.55
2018-06-17T05:18:57.060Z,128.57
2018-06-17T05:21:28.102Z,129.20
2018-06-17T05:23:59.229Z,132.60
2018-06-17T05:26:30.333Z,133.00
2018-06-17T05:29:01.403Z,132.27
2018-06-17T05:31:32.549Z,132.35
2018-06-17T05:34:03.601Z,127.72
2018-06-17T05:36:35.117Z,136.68
2018-06-17T05:39:09.982Z,131.85
2018-06-17T05:41:41.117Z,133.03
2018-06-17T05:44:12.235Z,126.70
2018-06-17T05:46:43.309Z,129.53
2018-06-17T05:49:14.427Z,131.55
2018-06-17T05:51:45.539Z,131.45
2018-06-17T05:54:16.769Z,125.05
2018-06-17T05:56:47.841Z,130.27
2018-06-17T05:59:18.885Z,129.87
2018-06-17T06:01:49.970Z,129.63
2018-06-17T06:04:21.034Z,134.50
2018-06-17T06:06:52.132Z,137.05
2018-06-17T06:09:23.253Z,129.45
2018-06-17T06:11:54.389Z,129.30
2018-06-17T06:14:25.565Z,137.20
2018-06-17T06:16:56.812Z,132.93
2018-06-17T06:19:27.995Z,136.03
2018-06-17T06:21:59.060Z,137.52
2018-06-17T06:24:30.483Z,135.30
2018-06-17T06:27:01.535Z,136.88
2018-06-17T06:29:32.921Z,138.03
2018-06-17T06:32:04.046Z,134.52
2018-06-17T06:34:35.191Z,133.05
2018-06-17T06:37:06.190Z,129.45
2018-06-17T06:39:37.328Z,130.32
2018-06-17T06:42:08.440Z,133.27
2018-06-17T06:44:40.873Z,132.07
2018-06-17T06:47:11.929Z,134.22
2018-06-17T06:49:42.892Z,128.60
2018-06-17T06:52:14.835Z,127.07
2018-06-17T06:54:45.857Z,131.50
2018-06-17T06:57:16.913Z,131.67
2018-06-17T06:59:47.906Z,132.50
2018-06-17T07:02:29.591Z,131.57
2018-06-17T07:05:11.399Z,126.85
2018-06-17T07:08:56.720Z,129.05
2018-06-17T07:11:28.121Z,127.00
2018-06-17T07:13:59.192Z,126.95
2018-06-17T07:16:40.835Z,131.07
2018-06-17T07:19:11.945Z,132.20
2018-06-17T07:21:43.436Z,130.95
2018-06-17T07:24:14.249Z,126.53
2018-06-17T07:26:56.789Z,126.30
2018-06-17T07:29:39.746Z,132.63
2018-06-17T07:32:10.400Z,130.55
2018-06-17T07:34:41.077Z,127.62
2018-06-17T07:37:11.913Z,131.90
2018-06-17T07:41:05.973Z,130.35
2018-06-17T07:43:38.736Z,130.50
2018-06-17T07:46:09.462Z,134.10
2018-06-17T07:49:49.688Z,132.90
2018-06-17T07:52:32.369Z,126.50
2018-06-17T07:55:04.299Z,133.43
2018-06-17T07:57:35.762Z,129.03
2018-06-17T08:00:06.309Z,125.72
2018-06-17T08:02:36.958Z,125.58
2018-06-17T08:05:07.718Z,128.05
2018-06-17T08:07:38.577Z,131.03
2018-06-17T08:10:09.653Z,131.30
2018-06-17T08:12:40.405Z,126.35
2018-06-17T08:15:11.154Z,127.35
2018-06-17T08:17:42.238Z,132.27
2018-06-17T08:20:13.199Z,130.57
2018-06-17T08:22:43.737Z,130.57
2018-06-17T08:25:14.510Z,128.78
2018-06-17T08:27:45.226Z,130.12
2018-06-17T08:30:16.066Z,127.60
2018-06-17T08:32:46.970Z,131.03
2018-06-17T08:35:17.906Z,129.32
2018-06-17T08:37:48.806Z,135.28
2018-06-17T08:40:19.700Z,129.65
2018-06-17T08:42:50.948Z,127.80
2018-06-17T08:45:21.947Z,128.55
2018-06-17T08:47:56.839Z,129.27
2018-06-17T08:50:28.299Z,130.87
2018-06-17T08:52:59.538Z,127.25
2018-06-17T08:55:30.479Z,132.10
2018-06-17T08:58:01.314Z,130.10
2018-06-17T09:00:32.192Z,131.43
2018-06-17T09:03:03.763Z,130.90
2018-06-17T09:05:34.471Z,129.82
2018-06-17T09:08:05.061Z,131.43
2018-06-17T09:10:36.416Z,130.22
2018-06-17T09:13:07.132Z,126.25
2018-06-17T09:15:37.958Z,127.55
2018-06-17T09:18:08.704Z,132.25
2018-06-17T09:20:39.545Z,129.12
2018-06-17T09:23:10.456Z,126.22
2018-06-17T09:25:41.349Z,132.60
2018-06-17T09:28:12.156Z,130.93
2018-06-17T09:30:43.040Z,129.72
2018-06-17T09:33:13.901Z,129.38
2018-06-17T09:35:44.666Z,130.12
2018-06-17T09:38:15.669Z,129.20
2018-06-17T09:40:46.542Z,127.42
2018-06-17T09:43:17.349Z,128.25
2018-06-17T09:45:48.240Z,129.32
2018-06-17T09:48:19.149Z,129.10
2018-06-17T09:50:52.739Z,129.95
2018-06-17T09:53:23.769Z,126.58
2018-06-17T09:55:54.761Z,125.42
2018-06-17T09:58:25.783Z,128.00
2018-06-17T10:00:56.680Z,125.25
2018-06-17T10:03:27.641Z,125.38
2018-06-17T10:05:58.550Z,129.60
2018-06-17T10:08:29.648Z,126.30
2018-06-17T10:11:02.659Z,131.37
2018-06-17T10:13:37.180Z,130.55
2018-06-17T10:16:08.386Z,127.95
2018-06-17T10:18:39.502Z,132.75
2018-06-17T10:21:10.895Z,129.55
2018-06-17T10:23:42.104Z,129.05
2018-06-17T10:26:13.113Z,131.90
2018-06-17T10:28:44.392Z,132.43
2018-06-17T10:31:15.469Z,132.57
2018-06-17T10:33:47.089Z,129.82
2018-06-17T10:36:18.187Z,133.20
2018-06-17T10:38:49.481Z,129.50
2018-06-17T10:41:20.422Z,134.78
2018-06-17T10:43:51.384Z,129.35
2018-06-17T10:46:22.315Z,125.50
2018-06-17T10:48:53.591Z,130.57
2018-06-17T10:51:24.527Z,130.80
2018-06-17T10:53:55.578Z,132.93
2018-06-17T10:56:27.742Z,128.32
2018-06-17T10:58:58.727Z,125.35
2018-06-17T11:01:29.648Z,133.27
2018-06-17T11:04:00.797Z,130.60
2018-06-17T11:06:31.870Z,128.70
2018-06-17T11:09:03.217Z,129.38
2018-06-17T11:11:34.403Z,130.15
2018-06-17T11:14:05.333Z,126.97
2018-06-17T11:16:36.718Z,132.52
2018-06-17T11:19:07.867Z,130.97
2018-06-17T11:21:39.017Z,136.68
2018-06-17T11:24:09.978Z,131.95
2018-06-17T11:26:41.095Z,129.00
2018-06-17T11:29:12.164Z,129.87
2018-06-17T11:31:49.001Z,123.45
2018-06-17T11:34:19.949Z,128.68
2018-06-17T11:36:51.026Z,128.47
2018-06-17T11:39:22.130Z,120.53
2018-06-17T11:41:54.241Z,125.05
2018-06-17T11:44:25.326Z,121.37
2018-06-17T11:46:56.783Z,121.22
2018-06-17T11:49:27.853Z,120.90
2018-06-17T11:51:58.965Z,122.17
2018-06-17T11:54:30.155Z,126.62
2018-06-17T11:57:01.354Z,125.78
2018-06-17T11:59:32.493Z,127.15
2018-06-17T12:02:03.559Z,128.15
2018-06-17T12:04:34.553Z,127.97
2018-06-17T12:07:05.825Z,125.05
2018-06-17T12:09:36.746Z,121.02
2018-06-17T12:12:07.880Z,128.70
2018-06-17T12:14:38.856Z,131.52
2018-06-17T12:17:10.022Z,130.22
2018-06-17T12:19:41.133Z,129.45
2018-06-17T12:22:12.507Z,120.25
2018-06-17T12:24:43.592Z,124.60
2018-06-17T12:27:14.681Z,125.58
2018-06-17T12:29:45.708Z,127.67
2018-06-17T12:32:16.733Z,124.02
2018-06-17T12:34:47.827Z,126.35
2018-06-17T12:37:19.009Z,126.45
2018-06-17T12:39:50.074Z,123.15
2018-06-17T12:42:21.130Z,122.90
2018-06-17T12:44:52.189Z,121.95
2018-06-17T12:47:23.178Z,123.65
2018-06-17T12:49:54.433Z,128.95
2018-06-17T12:52:25.455Z,120.00
2018-06-17T12:54:56.494Z,126.07
2018-06-17T12:57:28.471Z,123.62
2018-06-17T12:59:59.501Z,125.65
2018-06-17T13:02:30.455Z,129.72
2018-06-17T13:05:01.619Z,125.70
2018-06-17T13:07:32.598Z,132.47
2018-06-17T13:10:03.911Z,126.67
2018-06-17T13:12:34.984Z,125.70
2018-06-17T13:15:05.979Z,124.82
2018-06-17T13:17:37.117Z,125.02
2018-06-17T13:20:08.147Z,120.53
2018-06-17T13:22:39.171Z,128.05
2018-06-17T13:25:10.536Z,122.30
2018-06-17T13:27:41.689Z,126.05
2018-06-17T13:30:13.010Z,121.10
2018-06-17T13:32:44.155Z,126.90
2018-06-17T13:35:17.965Z,124.05
2018-06-17T13:37:49.002Z,124.55
2018-06-17T13:40:20.071Z,126.35
2018-06-17T13:42:51.184Z,126.22
2018-06-17T13:45:22.700Z,132.87
2018-06-17T13:47:53.631Z,124.75
2018-06-17T13:50:24.799Z,122.58
2018-06-17T13:52:57.164Z,125.47
2018-06-17T13:55:28.354Z,122.15
2018-06-17T13:57:59.405Z,122.22
2018-06-17T14:00:30.465Z,120.77
2018-06-17T14:03:01.558Z,125.18
2018-06-17T14:05:32.684Z,122.58
2018-06-17T14:08:04.441Z,125.60
2018-06-17T14:10:35.542Z,134.35
2018-06-17T14:13:06.866Z,134.32
2018-06-17T14:15:37.894Z,122.85
2018-06-17T14:18:08.876Z,121.65
2018-06-17T14:20:39.953Z,122.02
2018-06-17T14:23:10.992Z,118.13
2018-06-17T14:25:42.103Z,124.02
2018-06-17T14:28:13.127Z,123.95
2018-06-17T14:30:44.231Z,126.90
2018-06-17T14:33:15.995Z,125.38
2018-06-17T14:35:47.043Z,125.90
2018-06-17T14:38:18.312Z,128.05
2018-06-17T14:40:54.404Z,119.80
2018-06-17T14:43:30.806Z,123.40
2018-06-17T14:46:06.709Z,123.90
2018-06-17T14:48:42.785Z,123.18
2018-06-17T14:51:18.676Z,123.82
2018-06-17T14:53:49.744Z,120.65
2018-06-17T14:56:20.910Z,123.92
2018-06-17T14:58:52.205Z,121.50
2018-06-17T15:01:23.125Z,120.55
2018-06-17T15:03:54.204Z,123.58
2018-06-17T15:06:25.128Z,123.67
2018-06-17T15:08:56.294Z,125.22
2018-06-17T15:11:27.409Z,121.45
2018-06-17T15:13:58.923Z,123.60
2018-06-17T15:16:29.922Z,127.00
2018-06-17T15:19:02.138Z,130.45
2018-06-17T15:21:33.258Z,126.18
2018-06-17T15:24:05.198Z,125.47
2018-06-17T15:26:36.220Z,125.40
2018-06-17T15:29:07.243Z,124.18
2018-06-17T15:31:43.751Z,121.02
2018-06-17T15:34:20.043Z,123.53
2018-06-17T15:36:56.210Z,122.82
2018-06-17T15:39:32.534Z,120.97
2018-06-17T15:42:03.915Z,123.15
2018-06-17T15:44:34.957Z,121.95
2018-06-17T15:47:05.959Z,122.42
2018-06-17T15:49:36.996Z,124.95
2018-06-17T15:52:08.380Z,123.92
2018-06-17T15:54:39.466Z,124.90
2018-06-17T15:57:10.700Z,120.47
2018-06-17T15:59:41.700Z,121.55
2018-06-17T16:02:12.876Z,122.80
2018-06-17T16:04:43.895Z,128.07
2018-06-17T16:07:15.376Z,123.92
2018-06-17T16:09:46.380Z,125.72
2018-06-17T16:12:22.578Z,126.78
2018-06-17T16:14:58.726Z,122.02
2018-06-17T16:17:34.635Z,126.62
2018-06-17T16:20:11.303Z,121.00
2018-06-17T16:22:42.592Z,126.60
2018-06-17T16:25:13.839Z,125.18
2018-06-17T16:27:44.894Z,126.38
2018-06-17T16:30:15.942Z,127.07
2018-06-17T16:32:47.181Z,124.87
2018-06-17T16:35:18.318Z,126.40
2018-06-17T16:37:50.270Z,124.97
2018-06-17T16:40:21.477Z,123.80
2018-06-17T16:42:53.318Z,121.80
2018-06-17T16:45:24.320Z,125.92
2018-06-17T16:47:55.600Z,124.10
2018-06-17T16:50:26.807Z,124.67
2018-06-17T16:53:02.761Z,125.78
2018-06-17T16:55:38.871Z,122.55
2018-06-17T16:58:14.908Z,125.42
2018-06-17T17:00:46.031Z,124.05
2018-06-17T17:03:17.035Z,131.03
2018-06-17T17:05:48.081Z,127.10
2018-06-17T17:08:19.223Z,128.50
2018-06-17T17:10:50.847Z,128.55
2018-06-17T17:13:22.090Z,129.32
2018-06-17T17:15:55.393Z,123.40
2018-06-17T17:18:28.676Z,123.18
2018-06-17T17:21:01.643Z,125.05
2018-06-17T17:23:34.575Z,132.70
2018-06-17T17:26:06.528Z,127.70
2018-06-17T17:28:38.895Z,126.75
2018-06-17T17:31:10.669Z,132.63
2018-06-17T17:33:47.905Z,132.45
2018-06-17T17:36:24.322Z,134.30
2018-06-17T17:39:00.456Z,130.57
2018-06-17T17:41:31.645Z,127.15
2018-06-17T17:44:03.964Z,125.18
2018-06-17T17:46:40.087Z,125.05
2018-06-17T17:49:11.105Z,128.12
2018-06-17T17:51:42.139Z,125.75
2018-06-17T17:54:13.360Z,124.33
2018-06-17T17:56:44.658Z,128.85
2018-06-17T17:59:15.906Z,120.80
2018-06-17T18:01:47.061Z,124.18
2018-06-17T18:04:18.611Z,127.70
2018-06-17T18:06:50.510Z,122.45
2018-06-17T18:09:23.071Z,125.50
2018-06-17T18:11:54.289Z,124.65
2018-06-17T18:14:25.797Z,122.60
2018-06-17T18:16:56.809Z,123.62
2018-06-17T18:19:28.434Z,123.53
2018-06-17T18:21:59.594Z,125.92
2018-06-17T18:24:31.114Z,125.45
2018-06-17T18:27:07.459Z,127.12
2018-06-17T18:29:43.899Z,130.00
2018-06-17T18:32:20.326Z,130.67
2018-06-17T18:34:57.381Z,130.32
2018-06-17T18:37:28.519Z,126.38
2018-06-17T18:39:59.869Z,122.67
2018-06-17T18:42:31.003Z,125.18
2018-06-17T18:45:02.980Z,141.10
2018-06-17T18:47:35.765Z,132.40
2018-06-17T18:50:07.021Z,133.72
2018-06-17T18:52:38.656Z,127.82
2018-06-17T18:55:11.357Z,121.20
2018-06-17T18:57:42.990Z,120.08
2018-06-17T19:00:14.537Z,123.65
2018-06-17T19:02:46.082Z,119.00
2018-06-17T19:05:18.002Z,120.67
2018-06-17T19:07:49.505Z,124.78
2018-06-17T19:10:26.440Z,121.20
2018-06-17T19:13:02.776Z,120.20
2018-06-17T19:15:39.337Z,120.85
2018-06-17T19:18:13.606Z,126.53
2018-06-17T19:20:46.028Z,128.80
2018-06-17T19:23:17.588Z,125.22
2018-06-17T19:25:49.379Z,127.47
2018-06-17T19:28:21.319Z,127.20
2018-06-17T19:30:54.488Z,120.90
2018-06-17T19:33:28.291Z,121.30
2018-06-17T19:35:59.810Z,120.20
2018-06-17T19:38:31.373Z,119.22
2018-06-17T19:41:02.900Z,117.10
2018-06-17T19:43:34.130Z,115.47
2018-06-17T19:46:05.405Z,119.47
2018-06-17T19:48:36.954Z,117.25
2018-06-17T19:51:13.130Z,119.87
2018-06-17T19:54:51.232Z,154.05
2018-06-17T19:57:27.865Z,130.12
2018-06-17T20:00:04.061Z,125.42
2018-06-17T20:02:35.664Z,128.70
2018-06-17T20:05:08.584Z,123.18
2018-06-17T20:07:42.101Z,131.15
2018-06-17T20:10:14.267Z,123.82
2018-06-17T20:12:46.828Z,126.62
2018-06-17T20:15:18.948Z,126.58
2018-06-17T20:17:51.524Z,124.12
2018-06-17T20:20:24.327Z,118.40
2018-06-17T20:22:56.956Z,121.28
2018-06-17T20:25:31.597Z,121.05
2018-06-17T20:28:04.593Z,115.82
2018-06-17T20:30:35.801Z,119.25
2018-06-17T20:33:12.093Z,117.05
2018-06-17T20:35:48.400Z,116.20
2018-06-17T20:38:25.315Z,117.42
2018-06-17T20:41:01.706Z,119.47
2018-06-17T20:43:37.904Z,119.62
2018-06-17T20:46:09.116Z,119.28
2018-06-17T20:48:40.650Z,115.88
2018-06-17T20:51:12.184Z,123.20
2018-06-17T20:53:43.530Z,116.08
2018-06-17T20:56:15.359Z,121.30
2018-06-17T20:58:46.854Z,121.65
2018-06-17T21:01:18.464Z,121.42
2018-06-17T21:03:49.592Z,123.25
2018-06-17T21:06:20.902Z,122.85
2018-06-17T21:08:52.106Z,125.45
2018-06-17T21:11:23.342Z,122.00
2018-06-17T21:13:54.573Z,119.02
2018-06-17T21:16:25.762Z,123.13
2018-06-17T21:19:02.616Z,120.35
2018-06-17T21:21:38.841Z,118.02
2018-06-17T21:24:16.566Z,121.97
2018-06-17T21:26:52.759Z,122.75
2018-06-17T21:29:24.217Z,125.85
2018-06-17T21:31:55.346Z,124.30
2018-06-17T21:34:28.688Z,116.03
2018-06-17T21:37:00.134Z,120.65
2018-06-17T21:39:31.393Z,119.93
2018-06-17T21:42:02.520Z,117.00
2018-06-17T21:44:33.797Z,113.45
2018-06-17T21:47:05.043Z,113.72
2018-06-17T21:49:36.731Z,114.37
2018-06-17T21:52:08.361Z,112.52
2018-06-17T21:54:39.813Z,119.00
2018-06-17T21:57:11.185Z,120.17
2018-06-17T21:59:42.553Z,118.80
2018-06-17T22:02:13.830Z,122.80
2018-06-17T22:04:45.669Z,126.78
2018-06-17T22:07:17.570Z,120.30
2018-06-17T22:09:54.660Z,119.08
2018-06-17T22:12:31.148Z,121.25
2018-06-17T22:15:08.132Z,125.47
2018-06-17T22:17:44.219Z,121.97
2018-06-17T22:20:15.516Z,121.00
2018-06-17T22:22:46.835Z,113.25
2018-06-17T22:25:19.073Z,113.20
2018-06-17T22:27:50.289Z,109.42
2018-06-17T22:30:21.722Z,113.70
2018-06-17T22:32:53.085Z,114.12
2018-06-17T22:35:24.155Z,119.15
2018-06-17T22:37:55.507Z,117.75
2018-06-17T22:40:26.697Z,118.22
2018-06-17T22:42:57.813Z,119.22
2018-06-17T22:45:29.175Z,115.20
2018-06-17T22:48:00.887Z,119.13
2018-06-17T22:50:32.234Z,119.97
2018-06-17T22:53:13.812Z,115.70
2018-06-17T22:55:45.269Z,121.53
2018-06-17T22:58:21.678Z,116.40
2018-06-17T23:00:59.312Z,122.72
2018-06-17T23:03:36.298Z,115.25
2018-06-17T23:06:12.931Z,111.25
2018-06-17T23:09:51.750Z,119.87
2018-06-17T23:12:23.024Z,115.08
2018-06-17T23:14:54.193Z,121.05
2018-06-17T23:17:26.285Z,123.15
2018-06-17T23:19:57.555Z,124.60
2018-06-17T23:22:29.408Z,123.22
2018-06-17T23:25:00.692Z,122.13
2018-06-17T23:27:31.772Z,121.15
2018-06-17T23:30:02.892Z,118.65
2018-06-17T23:32:34.833Z,116.75
2018-06-17T23:35:06.035Z,116.25
2018-06-17T23:37:38.323Z,116.73
2018-06-17T23:40:09.577Z,115.60
2018-06-17T23:42:41.050Z,117.67
2018-06-17T23:45:12.148Z,116.40
2018-06-17T23:47:48.953Z,118.25
2018-06-17T23:50:24.996Z,115.75
2018-06-17T23:53:01.307Z,116.82
2018-06-17T23:55:37.589Z,118.00
2018-06-17T23:58:09.142Z,114.03
